Fort Lauderdale, FL

10:13 PM EST on November 25, 2014 (GMT -0500)
Lauderdale Harbors | Change Station
CLOSE
Current Station
Personal Weather Station
Location: Fort Lauderdale, FL
Elevation: 16 ft
Nearby Weather Stations

Elev 16 ft 26.11 °N, 80.13 °W | Updated 3 minutes ago

Partly Cloudy
Partly Cloudy
79.4 °F
Feels Like 84 °F
N
3.0
Wind Variable Wind from SSW
Gusts 3.0 mph

Today
High -- | Low -- °F
--% Chance of Precip.
Yesterday
High -- | Low -- °F
Precip. -- in
6:46 AM 5:28 PM
Waxing Crescent, 16% visible
Pressure 29.97 in
Visibility 10.0 miles
Clouds Few 1800 ft
Scattered Clouds 25000 ft
Heat Index 84 °F
Dew Point 76 °F
Humidity 91%
Rainfall 0.00 in
Snow Depth Not available.
UV 0 out of 12
Pollen 4.00 out of 12
Air Quality Not available.
Flu Activity Not available.
METAR KFLL 260253Z 17006KT 10SM FEW018 SCT250 27/24 A2997 RMK AO2 SLP147 T02670239 51005

More Conditions Fewer Conditions

Pressure 29.97 in
Visibility 10.0 miles
Clouds Few 1800 ft
Scattered Clouds 25000 ft
Heat Index 84 °F
Dew Point 76 °F
Humidity 91%
Rainfall 0.00 in
Snow Depth Not available.
UV 0 out of 12
Pollen 4.00 out of 12
Air Quality Not available.
Flu Activity Not available.
METAR KFLL 260253Z 17006KT 10SM FEW018 SCT250 27/24 A2997 RMK AO2 SLP147 T02670239 51005

More Conditions Fewer Conditions

10-Day Weather Forecast

Almanac

Astronomy

Nov. 25, 2014 Rise Set
Actual Time
Civil Twilight
Nautical Twilight
Astronomical Twilight
Moon
Length of Visible Light
Length of Day
Tomorrow will be .
, % of the Moon is Illuminated

Today's Extremes

State Highs State Lows

Community

WunderPhotos

Upload Photos

1,773,666 photos uploaded!

WunderBlogs® & News

Nearby

Air Quality

  Air Quality AQ Index Pollutant
Not available.

Snow Depth

Station Depth Elevation

Earthquake Activity

City Distance Mag. Time & Date
Minimum magnitude displayed is 2.5.

Coastal Water Temperatures

Place Temperature

Nearby Weather Stations